This is the latest recevied weather packets stored in our database for station/object EA4BCR. If no packets are shown the sender has not sent any weather packets the latest 10 day(s).
| Time | Temp. | Humidity | Pressure | Rain* | Wind** | Luminosity | Snow |
|---|---|---|---|---|---|---|---|
| 1788033017 | 23.33° C | 32% | 1016.3 hPa | - | - | - | - |
| 1788032418 | 23.89° C | 27% | 1016.1 hPa | - | - | - | - |
| 1788031817 | 23.89° C | 28% | 1015.8 hPa | - | - | - | - |
| 1788031217 | 24.44° C | 26% | 1015.6 hPa | - | - | - | - |
| 1788030617 | 24.44° C | 26% | 1015.4 hPa | - | - | - | - |
| 1788030017 | 25° C | 26% | 1015.2 hPa | - | - | - | - |
| 1788029417 | 25.56° C | 25% | 1014.9 hPa | - | - | - | - |
| 1788028817 | 26.11° C | 25% | 1014.6 hPa | - | - | - | - |
| 1788028217 | 26.67° C | 24% | 1014.5 hPa | - | - | - | - |
| 1788027617 | 27.22° C | 23% | 1014.2 hPa | - | - | - | - |
| 1788027017 | 27.22° C | 23% | 1014.1 hPa | - | - | - | - |
| 1788026417 | 28.33° C | 22% | 1013.7 hPa | - | - | - | - |
| 1788025817 | 27.78° C | 21% | 1013.8 hPa | - | - | - | - |
| 1788025217 | 27.78° C | 22% | 1013.8 hPa | - | - | - | - |
| 1788024617 | 28.89° C | 22% | 1013.3 hPa | - | - | - | - |
| 1788024017 | 28.89° C | 20% | 1013.5 hPa | - | - | - | - |
| 1788023417 | 28.89° C | 21% | 1013.5 hPa | - | - | - | - |
| 1788022817 | 29.44° C | 20% | 1013.2 hPa | - | - | - | - |
| 1788022217 | 29.44° C | 20% | 1013.2 hPa | - | - | - | - |
| 1788021616 | 29.44° C | 20% | 1013.2 hPa | - | - | - | - |
| 1788021017 | 28.89° C | 21% | 1013.4 hPa | - | - | - | - |
| 1788020417 | 30° C | 22% | 1013.2 hPa | - | - | - | - |
| 1788019817 | 30° C | 21% | 1013.2 hPa | - | - | - | - |
| 1788019217 | 30.56° C | 20% | 1013.2 hPa | - | - | - | - |
| 1788018617 | 30° C | 20% | 1013.4 hPa | - | - | - | - |
* Rain since midnight (hover to see other rain measurements)
** Current wind speed in m/s (hover to see current wind gust speed)